首页
METAR-TAF:

METAR-TAF

机场 :

科罗拉多城, 亞利桑那州, 美国

纬度: 36-57-36N, 经度: 113-00-50W, 海拔: 1486米

当前天气观测

该预报发布于26分钟前的21:15 UTC
风速5节,风向
温度 37°C
湿度 8%
气压 1021 hPa
能見度: 16.1公里
天空无云

METAR: KAZC 212115Z AUTO 18005KT 10SM CLR 37/M03 A3015 RMK AO2

时间: 14:41 (21:41 UTC)


TAF: 丢失

超过4000个机场的气象观测和天气预报(METAR&TAF报告)。

可查询的气象台以黄色和红色小点在地图上表示。

将鼠标移到小点上方,可查看气象台名称。

然后点击查看天气观测和预报。

如需切换地图:点击带黑十字的绿色按钮放大地图;点击带横线的绿色按钮缩小地图;或者点击绿色箭头查看邻近地区的地图。


METAR-TAF: